Forest fire From: 18-06-2018 11:00 Until: 19-06-2018 10:14 warning for: Forest fire Level: Yellow info button
suomi:
Metsäpalovaroitus on voimassa.

svenska:
Varning för skogsbrand gäller.

english:
A forest fire warning is in force. 


Thunder radar more information blitzortung!


Löydät sääaseman tiedot myös:

European Weather Network

Finland Weather Exchange

Weather Underground

AWEKAS



Weather Underground säähistoriasivu

Päivittäin yhteenveto Maaliskuu 12, 2017 Yksiköt:  Englantilaiset    Metriset   Molemmat
« Edellinen Päivä
Seuraava Päivä »
Päivittäin Viikoittain Kuukausittain Vuosittain Mukautettu
  Korkea: Matala: Keskiarvo:
Lämpötila: TemperatureC °F -2.6 °F 0.2 °F
Kastepiste: DewpointC °F -3.3 °F -1.1 °F
Kosteus: Humidity % 82 % 90 %
Tuulen nopeus: WindSpeedKMH mph 0.0 mph 6 mph
Tuulenpuuska: WindSpeedGustKMH mph - -
Tuuli:- - SSW
Ilmanpaine: PressurehPa in 1016.8 in -
Sade: 0.0 in    
Historical Graphs
 
 
Taulukkotiedot Maaliskuu 12, 2017
Aika Lämpötila Kastepiste Ilmanpaine Tuuli Tuulen nopeus Tuulenpuuska Kosteus Sademäärä (tunneittain)
TemperatureC °F DewpointC °F PressurehPa in Calm     Humidity % HourlyPrecipMM in
00:00 -2.3 °F -2.8 °F 1020.5 in SSW 1.6 mph 8.0 mph 96 % 0.0 in
00:15 -2.3 °F -2.9 °F 1020.5 in Calm   6.4 mph 96 % 0.0 in
00:30 -2.4 °F -2.9 °F 1020.5 in SSW 1.6 mph 8.0 mph 96 % 0.0 in
00:45 -2.4 °F -2.9 °F 1020.9 in SSW 1.6 mph 6.4 mph 96 % 0.0 in
01:00 -2.4 °F -3.0 °F 1020.5 in SSW 3.2 mph 9.7 mph 96 % 0.0 in
01:15 -2.4 °F -3.0 °F 1020.5 in SSW 3.2 mph 9.7 mph 96 % 0.0 in
01:30 -2.6 °F -3.1 °F 1020.9 in SSW 3.2 mph 8.0 mph 96 % 0.0 in
01:45 -2.6 °F -3.3 °F 1020.5 in South 1.6 mph 6.4 mph 95 % 0.0 in
02:00 -2.6 °F -3.3 °F 1020.5 in SSW 4.8 mph 14.5 mph 95 % 0.0 in
02:15 -2.6 °F -3.2 °F 1020.5 in SSW 4.8 mph 11.3 mph 96 % 0.0 in
02:30 -2.6 °F -3.2 °F 1020.5 in SSW 4.8 mph 11.3 mph 95 % 0.0 in
02:45 -2.6 °F -3.2 °F 1020.5 in SSW 4.8 mph 12.9 mph 95 % 0.0 in
03:00 -2.6 °F -3.2 °F 1020.2 in SSW 4.8 mph 11.3 mph 95 % 0.0 in
03:15 -2.5 °F -3.2 °F 1019.9 in SSW 6.4 mph 11.3 mph 95 % 0.0 in
03:30 -2.4 °F -3.1 °F 1019.9 in SSW 6.4 mph 12.9 mph 95 % 0.0 in
03:45 -2.4 °F -3.2 °F 1019.9 in SSW 6.4 mph 14.5 mph 94 % 0.0 in
04:00 -2.4 °F -3.2 °F 1019.5 in SSW 6.4 mph 11.3 mph 94 % 0.0 in
04:15 -2.3 °F -3.2 °F 1019.5 in SSW 4.8 mph 11.3 mph 94 % 0.0 in
04:30 -2.3 °F -3.1 °F 1019.2 in SSW 6.4 mph 12.9 mph 94 % 0.0 in
04:45 -2.3 °F -3.1 °F 1018.8 in SSW 6.4 mph 16.1 mph 94 % 0.0 in
05:00 -2.3 °F -3.2 °F 1018.8 in SSW 4.8 mph 11.3 mph 94 % 0.0 in
05:15 -2.3 °F -3.1 °F 1018.5 in SSW 6.4 mph 11.3 mph 94 % 0.0 in
05:30 -2.3 °F -3.2 °F 1018.5 in SSW 4.8 mph 9.7 mph 94 % 0.0 in
05:45 -2.3 °F -3.2 °F 1018.5 in SSW 3.2 mph 9.7 mph 94 % 0.0 in
06:00 -2.2 °F -3.1 °F 1018.2 in SSW 4.8 mph 11.3 mph 94 % 0.0 in
06:15 -2.0 °F -2.8 °F 1018.2 in SSW 4.8 mph 12.9 mph 94 % 0.0 in
06:30 -1.9 °F -2.8 °F 1018.2 in SSW 4.8 mph 11.3 mph 94 % 0.0 in
06:45 -1.8 °F -2.8 °F 1017.8 in SSW 4.8 mph 12.9 mph 93 % 0.0 in
07:00 -1.8 °F -2.8 °F 1017.8 in SSW 4.8 mph 9.7 mph 93 % 0.0 in
07:15 -1.8 °F -2.8 °F 1017.8 in SSW 4.8 mph 14.5 mph 93 % 0.0 in
07:30 -1.6 °F -2.6 °F 1017.8 in SSW 4.8 mph 9.7 mph 93 % 0.0 in
07:45 -1.4 °F -2.4 °F 1017.8 in SSW 4.8 mph 11.3 mph 93 % 0.0 in
08:00 -1.3 °F -2.3 °F 1017.8 in SSW 1.6 mph 9.7 mph 93 % 0.0 in
08:15 -1.0 °F -2.1 °F 1017.5 in South 3.2 mph 9.7 mph 92 % 0.0 in
08:30 -0.6 °F -1.7 °F 1017.5 in SSW 4.8 mph 12.9 mph 92 % 0.0 in
08:45 -0.3 °F -1.4 °F 1017.2 in SSW 3.2 mph 14.5 mph 92 % 0.0 in
09:00 0.1 °F -1.2 °F 1017.2 in SSW 6.4 mph 16.1 mph 91 % 0.0 in
09:15 0.4 °F -1.1 °F 1017.2 in SSW 6.4 mph 14.5 mph 90 % 0.0 in
09:30 0.7 °F -0.9 °F 1017.2 in SSW 6.4 mph 16.1 mph 89 % 0.0 in
09:45 1.1 °F -0.7 °F 1017.2 in SSW 8.0 mph 12.9 mph 88 % 0.0 in
10:00 1.3 °F -0.6 °F 1017.2 in SSW 8.0 mph 20.9 mph 87 % 0.0 in
10:15 1.7 °F -0.4 °F 1017.2 in SSW 8.0 mph 19.3 mph 86 % 0.0 in
10:30 2.2 °F -0.2 °F 1016.8 in SSW 9.7 mph 17.7 mph 84 % 0.0 in
10:45 2.6 °F 0.0 °F 1016.8 in SSW 11.3 mph 24.1 mph 83 % 0.0 in
11:00 3.0 °F 0.2 °F 1016.8 in SSW 11.3 mph 32.2 mph 82 % 0.0 in
11:15 3.1 °F 0.3 °F 1016.8 in SSW 12.9 mph 32.2 mph 82 % 0.0 in
11:30 3.2 °F 0.4 °F 1016.8 in SSW 9.7 mph 25.7 mph 82 % 0.0 in
11:45 3.1 °F 0.3 °F 1017.2 in SSW 8.0 mph 30.6 mph 82 % 0.0 in
12:00 3.1 °F 0.5 °F 1017.2 in SSW 9.7 mph 22.5 mph 83 % 0.0 in
12:15 3.1 °F 0.5 °F 1017.2 in SSW 8.0 mph 27.4 mph 83 % 0.0 in
12:30 2.9 °F 0.3 °F 1017.2 in SSW 11.3 mph 25.7 mph 83 % 0.0 in
12:45 2.9 °F 0.5 °F 1017.2 in SSW 9.7 mph 30.6 mph 84 % 0.0 in
13:00 2.8 °F 0.3 °F 1017.2 in SSW 9.7 mph 32.2 mph 84 % 0.0 in
13:15 2.8 °F 0.5 °F 1017.2 in SSW 9.7 mph 25.7 mph 85 % 0.0 in
13:30 2.7 °F 0.4 °F 1017.2 in SSW 11.3 mph 29.0 mph 85 % 0.0 in
13:45 2.7 °F 0.6 °F 1016.8 in SSW 9.7 mph 20.9 mph 86 % 0.0 in
14:00 2.9 °F 0.5 °F 1017.2 in SSW 8.0 mph 24.1 mph 84 % 0.0 in
14:15 2.9 °F 0.5 °F 1016.8 in SSW 9.7 mph 27.4 mph 84 % 0.0 in
14:30 2.9 °F 0.7 °F 1017.2 in SSW 8.0 mph 24.1 mph 85 % 0.0 in
14:45 2.9 °F 0.5 °F 1017.2 in SSW 9.7 mph 27.4 mph 84 % 0.0 in
15:00 2.8 °F 0.6 °F 1017.2 in SSW 11.3 mph 25.7 mph 85 % 0.0 in
15:15 2.8 °F 0.6 °F 1017.2 in SSW 6.4 mph 19.3 mph 85 % 0.0 in
15:30 2.8 °F 0.5 °F 1017.2 in SSW 8.0 mph 19.3 mph 85 % 0.0 in
15:45 2.7 °F 0.6 °F 1016.8 in SSW 9.7 mph 19.3 mph 86 % 0.0 in
16:00 2.7 °F 0.6 °F 1017.2 in SW 6.4 mph 19.3 mph 86 % 0.0 in
16:15 2.7 °F 0.6 °F 1016.8 in SSW 8.0 mph 17.7 mph 86 % 0.0 in
16:30 2.7 °F 0.6 °F 1016.8 in SSW 9.7 mph 22.5 mph 86 % 0.0 in
16:45 2.6 °F 0.7 °F 1017.2 in SSW 8.0 mph 16.1 mph 87 % 0.0 in
19:45 1.8 °F 0.5 °F 1017.5 in SSW 4.8 mph 12.9 mph 91 % 0.0 in
20:00 1.7 °F 0.6 °F 1017.2 in SSW 6.4 mph 16.1 mph 92 % 0.0 in
20:15 1.6 °F 0.4 °F 1017.5 in SSW 4.8 mph 17.7 mph 92 % 0.0 in
20:30 1.4 °F 0.4 °F 1017.8 in SSW 3.2 mph 11.3 mph 93 % 0.0 in
20:45 1.4 °F 0.4 °F 1017.5 in SSW 4.8 mph 14.5 mph 93 % 0.0 in
21:00 1.3 °F 0.3 °F 1017.5 in SSW 4.8 mph 11.3 mph 93 % 0.0 in
21:15 1.3 °F 0.3 °F 1017.5 in SSW 4.8 mph 14.5 mph 93 % 0.0 in
21:30 1.2 °F 0.4 °F 1017.5 in SSW 6.4 mph 14.5 mph 94 % 0.0 in
21:45 1.1 °F 0.3 °F 1017.8 in SSW 4.8 mph 16.1 mph 94 % 0.0 in
22:00 0.9 °F 0.1 °F 1017.8 in SSW 6.4 mph 16.1 mph 94 % 0.0 in
22:15 0.8 °F 0.0 °F 1017.8 in SW 4.8 mph 14.5 mph 94 % 0.0 in
22:30 0.6 °F -0.2 °F 1018.2 in SSW 3.2 mph 9.7 mph 94 % 0.0 in
22:45 0.5 °F -0.4 °F 1018.2 in SSW 1.6 mph 6.4 mph 94 % 0.0 in
23:00 0.4 °F -0.3 °F 1017.8 in SSW 4.8 mph 11.3 mph 95 % 0.0 in
23:15 0.3 °F -0.4 °F 1018.2 in SSW 3.2 mph 9.7 mph 95 % 0.0 in
23:30 0.2 °F -0.5 °F 1018.2 in SSW 3.2 mph 11.3 mph 95 % 0.0 in
23:45 0.1 °F -0.6 °F 1018.2 in SSW 4.8 mph 9.7 mph 95 % 0.0 in
Esan sääasema
Terveisin Weather Underground - 2.75 mb

Alkuperäinen skripti  Jim McMurry - jmcmurry@mwt.net Sovitettu myös templatelle  Wim van der Kuil - Leuven-Template.eu

Laitteet joita käytämme:

Sääasema
Davis VP2

Sääasemaohjelma
Cumulus

Sääaseman tietokone
Asus EeePC

Palveluntarjoaja
Suncomet

Davis VP2

Cumulus

Asus EeePC

Suncomet